createdAt,value
2019-05-29T00:01:57.091Z,8.70
2019-05-29T00:04:27.540Z,8.70
2019-05-29T00:06:57.940Z,8.70
2019-05-29T00:09:28.280Z,8.70
2019-05-29T00:11:58.683Z,8.70
2019-05-29T00:14:28.961Z,8.60
2019-05-29T00:16:59.221Z,8.60
2019-05-29T00:19:29.496Z,8.60
2019-05-29T00:21:59.929Z,8.40
2019-05-29T00:24:32.810Z,8.20
2019-05-29T00:27:03.167Z,8.10
2019-05-29T00:29:33.537Z,8.00
2019-05-29T00:32:03.792Z,8.00
2019-05-29T00:34:34.164Z,8.00
2019-05-29T00:37:04.493Z,8.20
2019-05-29T00:39:34.773Z,8.20
2019-05-29T00:42:07.465Z,8.20
2019-05-29T00:44:37.984Z,8.10
2019-05-29T00:47:09.249Z,8.00
2019-05-29T00:49:39.743Z,8.00
2019-05-29T00:52:12.161Z,7.80
2019-05-29T00:54:42.707Z,7.80
2019-05-29T00:57:13.002Z,7.90
2019-05-29T00:59:43.448Z,7.80
2019-05-29T01:02:13.869Z,7.80
2019-05-29T01:04:44.119Z,7.90
2019-05-29T01:07:14.442Z,7.90
2019-05-29T01:09:44.863Z,8.00
2019-05-29T01:12:15.287Z,8.00
2019-05-29T01:14:50.234Z,7.90
2019-05-29T01:17:17.720Z,7.90
2019-05-29T01:19:48.191Z,7.80
2019-05-29T01:22:18.748Z,7.80
2019-05-29T01:24:49.087Z,7.70
2019-05-29T01:27:20.908Z,7.70
2019-05-29T01:29:51.441Z,7.70
2019-05-29T01:32:21.727Z,7.70
2019-05-29T01:34:51.975Z,7.60
2019-05-29T01:37:22.357Z,7.60
2019-05-29T01:39:52.735Z,7.60
2019-05-29T01:42:23.511Z,7.40
2019-05-29T01:45:07.202Z,7.20
2019-05-29T01:47:25.998Z,7.00
2019-05-29T01:49:56.354Z,7.10
2019-05-29T01:52:28.011Z,7.20
2019-05-29T01:54:58.485Z,7.30
2019-05-29T01:57:28.834Z,7.30
2019-05-29T01:59:59.202Z,7.30
2019-05-29T02:02:29.471Z,7.20
2019-05-29T02:04:59.881Z,7.20
2019-05-29T02:07:30.291Z,7.20
2019-05-29T02:10:00.546Z,7.20
2019-05-29T02:12:32.092Z,7.30
2019-05-29T02:15:04.253Z,7.30
2019-05-29T02:17:34.615Z,7.30
2019-05-29T02:20:05.406Z,7.30
2019-05-29T02:22:35.826Z,7.10
2019-05-29T02:25:06.764Z,7.00
2019-05-29T02:27:37.175Z,6.90
2019-05-29T02:30:10.370Z,6.70
2019-05-29T02:32:40.709Z,6.60
2019-05-29T02:35:11.223Z,6.60
2019-05-29T02:37:41.643Z,6.50
2019-05-29T02:40:12.054Z,6.70
2019-05-29T02:42:42.579Z,6.80
2019-05-29T02:45:12.990Z,6.80
2019-05-29T02:47:43.332Z,6.70
2019-05-29T02:50:13.869Z,6.50
2019-05-29T02:52:44.279Z,6.40
2019-05-29T02:55:14.704Z,6.50
2019-05-29T02:57:45.109Z,6.50
2019-05-29T03:00:16.597Z,6.40
2019-05-29T03:02:46.887Z,6.40
2019-05-29T03:05:17.304Z,6.20
2019-05-29T03:07:47.581Z,6.30
2019-05-29T03:10:17.946Z,6.50
2019-05-29T03:12:48.360Z,6.60
2019-05-29T03:15:18.780Z,6.60
2019-05-29T03:17:49.127Z,6.70
2019-05-29T03:20:19.543Z,6.70
2019-05-29T03:22:49.885Z,6.80
2019-05-29T03:25:20.203Z,6.80
2019-05-29T03:27:50.472Z,6.80
2019-05-29T03:30:20.720Z,6.50
2019-05-29T03:32:51.178Z,6.30
2019-05-29T03:35:21.600Z,6.40
2019-05-29T03:37:51.851Z,6.40
2019-05-29T03:40:22.277Z,6.30
2019-05-29T03:42:52.630Z,6.30
2019-05-29T03:45:22.960Z,6.20
2019-05-29T03:47:53.406Z,6.40
2019-05-29T03:50:23.816Z,6.50
2019-05-29T03:52:54.112Z,6.40
2019-05-29T03:55:24.476Z,6.30
2019-05-29T03:57:54.737Z,6.30
2019-05-29T04:00:29.898Z,6.50
2019-05-29T04:02:57.173Z,6.60
2019-05-29T04:05:29.037Z,6.70
2019-05-29T04:07:59.427Z,6.60
2019-05-29T04:10:32.955Z,6.70
2019-05-29T04:13:02.376Z,6.80
2019-05-29T04:15:34.438Z,6.80
2019-05-29T04:18:06.958Z,6.70
2019-05-29T04:20:39.104Z,6.60
2019-05-29T04:23:09.506Z,6.50
2019-05-29T04:25:42.831Z,6.50
2019-05-29T04:28:12.208Z,6.60
2019-05-29T04:30:42.708Z,6.80
2019-05-29T04:33:12.971Z,6.80
2019-05-29T04:35:43.237Z,7.00
2019-05-29T04:38:13.664Z,7.10
2019-05-29T04:40:43.997Z,7.20
2019-05-29T04:43:14.328Z,7.30
2019-05-29T04:45:44.772Z,7.40
2019-05-29T04:48:15.163Z,7.50
2019-05-29T04:50:45.516Z,7.50
2019-05-29T04:53:15.768Z,7.60
2019-05-29T04:55:46.091Z,7.70
2019-05-29T04:58:16.331Z,7.80
2019-05-29T05:00:58.630Z,7.90
2019-05-29T05:03:19.598Z,8.00
2019-05-29T05:05:49.966Z,8.10
2019-05-29T05:08:20.363Z,8.20
2019-05-29T05:10:50.791Z,8.30
2019-05-29T05:13:21.143Z,8.40
2019-05-29T05:15:53.348Z,8.40
2019-05-29T05:18:23.685Z,8.60
2019-05-29T05:20:54.907Z,8.70
2019-05-29T05:23:25.272Z,8.60
2019-05-29T05:25:55.563Z,8.70
2019-05-29T05:28:25.851Z,8.90
2019-05-29T05:30:56.199Z,8.90
2019-05-29T05:33:26.523Z,9.00
2019-05-29T05:35:56.969Z,9.10
2019-05-29T05:38:27.347Z,9.20
2019-05-29T05:40:57.800Z,9.20
2019-05-29T05:43:28.049Z,9.30
2019-05-29T05:45:58.402Z,9.50
2019-05-29T05:48:28.692Z,9.60
2019-05-29T05:50:59.026Z,9.50
2019-05-29T05:53:29.369Z,9.50
2019-05-29T05:55:59.681Z,9.50
2019-05-29T05:58:30.039Z,9.60
2019-05-29T06:01:00.340Z,9.70
2019-05-29T06:03:32.168Z,9.80
2019-05-29T06:06:02.725Z,9.90
2019-05-29T06:08:34.042Z,10.00
2019-05-29T06:11:05.576Z,10.10
2019-05-29T06:13:36.327Z,10.20
2019-05-29T06:16:06.767Z,10.30
2019-05-29T06:18:37.011Z,10.40
2019-05-29T06:21:07.382Z,10.60
2019-05-29T06:23:38.841Z,11.30
2019-05-29T06:26:09.393Z,12.60
2019-05-29T06:28:39.812Z,13.70
2019-05-29T06:31:10.246Z,14.60
2019-05-29T06:33:41.490Z,15.20
2019-05-29T06:36:12.005Z,15.40
2019-05-29T06:38:42.417Z,15.60
2019-05-29T06:41:14.218Z,15.60
2019-05-29T06:43:44.743Z,15.70
2019-05-29T06:46:15.217Z,16.30
2019-05-29T06:48:58.858Z,16.50
2019-05-29T06:51:17.623Z,17.00
2019-05-29T06:53:48.341Z,16.90
2019-05-29T06:56:18.787Z,16.90
2019-05-29T06:58:49.210Z,17.30
2019-05-29T07:01:19.571Z,17.20
2019-05-29T07:03:50.088Z,17.70
2019-05-29T07:06:20.459Z,17.20
2019-05-29T07:08:50.800Z,17.60
2019-05-29T07:11:21.067Z,17.80
2019-05-29T07:13:51.443Z,18.20
2019-05-29T07:16:21.859Z,17.80
2019-05-29T07:19:23.862Z,17.50
2019-05-29T07:21:24.307Z,17.90
2019-05-29T07:23:54.570Z,18.00
2019-05-29T07:26:24.839Z,18.00
2019-05-29T07:29:07.105Z,18.00
2019-05-29T07:31:27.317Z,18.20
2019-05-29T07:33:57.674Z,18.40
2019-05-29T07:36:28.050Z,18.70
2019-05-29T07:39:03.646Z,19.00
2019-05-29T07:41:32.705Z,19.00
2019-05-29T07:44:03.010Z,18.70
2019-05-29T07:46:33.414Z,18.90
2019-05-29T07:49:03.917Z,19.00
2019-05-29T07:51:34.281Z,19.20
2019-05-29T07:54:04.724Z,19.50
2019-05-29T07:56:35.058Z,19.70
2019-05-29T07:59:05.482Z,18.80
2019-05-29T08:01:35.898Z,18.40
2019-05-29T08:04:06.333Z,18.80
2019-05-29T08:06:36.573Z,19.10
2019-05-29T08:09:08.041Z,19.00
2019-05-29T08:11:39.491Z,18.70
2019-05-29T08:14:09.918Z,19.30
2019-05-29T08:16:41.836Z,19.40
2019-05-29T08:19:12.511Z,19.50
2019-05-29T08:21:42.818Z,19.80
2019-05-29T08:24:14.241Z,19.70
2019-05-29T08:26:44.801Z,19.50
2019-05-29T08:29:16.038Z,19.40
2019-05-29T08:31:46.820Z,19.20
2019-05-29T08:34:17.393Z,19.50
2019-05-29T08:37:00.884Z,19.20
2019-05-29T08:39:33.557Z,19.20
2019-05-29T08:42:18.321Z,19.50
2019-05-29T08:44:24.265Z,20.50
2019-05-29T08:47:08.972Z,20.10
2019-05-29T08:49:26.658Z,19.60
2019-05-29T08:52:10.575Z,19.70
2019-05-29T08:54:28.896Z,19.90
2019-05-29T08:56:59.263Z,19.70
2019-05-29T08:59:29.796Z,19.70
2019-05-29T09:02:00.261Z,19.80
2019-05-29T09:04:30.756Z,20.00
2019-05-29T09:07:02.061Z,19.90
2019-05-29T09:09:32.455Z,19.70
2019-05-29T09:12:02.955Z,19.90
2019-05-29T09:14:33.366Z,19.80
2019-05-29T09:17:06.181Z,19.60
2019-05-29T09:19:37.497Z,19.90
2019-05-29T09:22:07.844Z,19.90
2019-05-29T09:24:38.248Z,20.00
2019-05-29T09:27:08.608Z,20.70
2019-05-29T09:29:38.945Z,21.30
2019-05-29T09:32:10.150Z,20.90
2019-05-29T09:34:40.705Z,20.60
2019-05-29T09:37:11.165Z,20.30
2019-05-29T09:39:41.625Z,20.20
2019-05-29T09:42:11.968Z,20.10
2019-05-29T09:44:42.268Z,20.30
2019-05-29T09:47:12.686Z,20.30
2019-05-29T09:49:43.088Z,20.30
2019-05-29T09:52:13.440Z,19.50
2019-05-29T09:54:43.749Z,20.00
2019-05-29T09:57:15.435Z,20.00
2019-05-29T09:59:45.912Z,20.20
2019-05-29T10:02:16.326Z,19.90
2019-05-29T10:04:47.844Z,19.80
2019-05-29T10:07:18.228Z,20.20
2019-05-29T10:09:48.591Z,20.30
2019-05-29T10:12:18.947Z,20.10
2019-05-29T10:14:51.417Z,20.10
2019-05-29T10:17:21.973Z,19.70
2019-05-29T10:19:52.342Z,19.50
2019-05-29T10:22:22.845Z,19.70
2019-05-29T10:24:53.242Z,20.20
2019-05-29T10:27:23.538Z,20.50
2019-05-29T10:29:54.307Z,20.40
2019-05-29T10:32:24.768Z,19.80
2019-05-29T10:34:55.958Z,19.90
2019-05-29T10:37:26.434Z,20.00
2019-05-29T10:39:56.841Z,19.80
2019-05-29T10:42:27.203Z,19.70
2019-05-29T10:44:57.544Z,19.80
2019-05-29T10:47:27.893Z,20.40
2019-05-29T10:49:58.154Z,20.10
2019-05-29T10:52:28.574Z,20.10
2019-05-29T10:54:58.923Z,20.60
2019-05-29T10:57:29.267Z,20.00
2019-05-29T10:59:59.617Z,19.80
2019-05-29T11:02:30.022Z,20.20
2019-05-29T11:05:00.374Z,20.00
2019-05-29T11:07:30.626Z,19.60
2019-05-29T11:10:02.987Z,19.70
2019-05-29T11:12:33.395Z,19.50
2019-05-29T11:15:20.415Z,19.40
2019-05-29T11:17:38.421Z,19.60
2019-05-29T11:20:11.247Z,19.30
2019-05-29T11:22:42.654Z,19.30
2019-05-29T11:25:23.329Z,19.50
2019-05-29T11:27:45.946Z,19.40
2019-05-29T11:30:17.999Z,19.40
2019-05-29T11:32:50.218Z,19.30
2019-05-29T11:35:20.547Z,19.40
2019-05-29T11:37:52.543Z,19.30
2019-05-29T11:40:23.242Z,19.50
2019-05-29T11:42:54.707Z,19.70
2019-05-29T11:45:25.174Z,19.80
2019-05-29T11:47:57.373Z,19.50
2019-05-29T11:50:28.415Z,19.50
2019-05-29T11:52:58.670Z,19.50
2019-05-29T11:55:29.002Z,19.40
2019-05-29T11:58:00.074Z,19.00
2019-05-29T12:00:31.062Z,19.10
2019-05-29T12:03:01.757Z,18.90
2019-05-29T12:05:32.132Z,19.00
2019-05-29T12:08:02.555Z,19.20
2019-05-29T12:10:32.945Z,19.30
2019-05-29T12:13:03.385Z,19.30
2019-05-29T12:15:33.815Z,19.10
2019-05-29T12:18:22.683Z,19.10
2019-05-29T12:20:38.028Z,19.20
2019-05-29T12:23:24.406Z,19.00
2019-05-29T12:25:40.621Z,19.00
2019-05-29T12:28:10.961Z,19.20
2019-05-29T12:30:41.415Z,19.20
2019-05-29T12:33:11.763Z,19.10
2019-05-29T12:35:42.185Z,19.00
2019-05-29T12:38:12.514Z,18.90
2019-05-29T12:40:43.110Z,18.90
2019-05-29T12:43:26.593Z,18.80
2019-05-29T12:45:45.673Z,18.90
2019-05-29T12:48:16.698Z,19.00
2019-05-29T12:50:47.541Z,18.80
2019-05-29T12:53:29.562Z,18.90
2019-05-29T12:55:49.961Z,18.60
2019-05-29T12:58:20.593Z,18.80
2019-05-29T13:00:51.084Z,18.80
2019-05-29T13:03:21.676Z,18.80
2019-05-29T13:05:52.036Z,18.70
2019-05-29T13:08:22.465Z,18.70
2019-05-29T13:10:52.810Z,18.60
2019-05-29T13:13:23.103Z,18.80
2019-05-29T13:15:54.740Z,18.80
2019-05-29T13:18:25.163Z,18.70
2019-05-29T13:20:56.533Z,18.50
2019-05-29T13:23:27.800Z,18.50
2019-05-29T13:25:59.362Z,18.70
2019-05-29T13:28:29.818Z,18.80
2019-05-29T13:31:00.109Z,19.00
2019-05-29T13:33:33.734Z,19.00
2019-05-29T13:36:04.658Z,19.00
2019-05-29T13:38:35.187Z,19.00
2019-05-29T13:41:06.660Z,19.00
2019-05-29T13:43:37.163Z,19.00
2019-05-29T13:46:07.649Z,19.00
2019-05-29T13:48:37.931Z,19.20
2019-05-29T13:51:08.332Z,19.10
2019-05-29T13:53:38.797Z,18.90
2019-05-29T13:56:09.145Z,18.70
2019-05-29T13:58:39.431Z,18.80
2019-05-29T14:01:09.794Z,18.80
2019-05-29T14:03:40.223Z,18.90
2019-05-29T14:06:10.654Z,18.70
2019-05-29T14:08:41.001Z,18.50
2019-05-29T14:11:11.499Z,18.50
2019-05-29T14:13:41.866Z,18.60
2019-05-29T14:16:12.961Z,18.80
2019-05-29T14:18:43.571Z,18.80
2019-05-29T14:21:13.935Z,18.80
2019-05-29T14:23:44.273Z,18.90
2019-05-29T14:26:14.568Z,18.90
2019-05-29T14:28:45.003Z,18.90
2019-05-29T14:31:15.440Z,18.70
2019-05-29T14:33:45.862Z,18.70
2019-05-29T14:36:16.224Z,18.70
2019-05-29T14:38:46.491Z,18.70
2019-05-29T14:41:17.802Z,18.60
2019-05-29T14:43:48.164Z,18.60
2019-05-29T14:46:18.523Z,18.80
2019-05-29T14:48:48.855Z,18.90
2019-05-29T14:51:19.207Z,19.10
2019-05-29T14:53:49.482Z,19.00
2019-05-29T14:56:19.989Z,19.00
2019-05-29T14:58:50.538Z,19.20
2019-05-29T15:01:21.780Z,19.30
2019-05-29T15:03:52.150Z,19.50
2019-05-29T15:06:22.609Z,19.60
2019-05-29T15:08:52.894Z,19.40
2019-05-29T15:11:23.311Z,19.30
2019-05-29T15:13:53.682Z,19.20
2019-05-29T15:16:24.106Z,19.20
2019-05-29T15:18:54.489Z,19.30
2019-05-29T15:21:24.867Z,19.30
2019-05-29T15:23:55.327Z,19.30
2019-05-29T15:26:25.659Z,19.10
2019-05-29T15:28:56.780Z,18.90
2019-05-29T15:31:27.532Z,18.60
2019-05-29T15:33:57.885Z,18.70
2019-05-29T15:36:28.216Z,18.60
2019-05-29T15:38:58.577Z,18.60
2019-05-29T15:41:28.919Z,18.70
2019-05-29T15:43:59.257Z,18.70
2019-05-29T15:46:29.561Z,18.70
2019-05-29T15:48:59.901Z,18.60
2019-05-29T15:51:31.587Z,18.70
2019-05-29T15:54:01.839Z,18.70
2019-05-29T15:56:32.278Z,18.60
2019-05-29T15:59:02.685Z,18.60
2019-05-29T16:01:33.099Z,18.50
2019-05-29T16:04:04.531Z,18.50
2019-05-29T16:06:34.866Z,18.70
2019-05-29T16:09:08.197Z,18.80
2019-05-29T16:11:38.584Z,18.70
2019-05-29T16:14:09.022Z,18.50
2019-05-29T16:16:39.665Z,18.60
2019-05-29T16:19:10.099Z,18.60
2019-05-29T16:21:40.593Z,18.70
2019-05-29T16:24:10.949Z,18.70
2019-05-29T16:26:41.452Z,18.80
2019-05-29T16:29:12.340Z,18.90
2019-05-29T16:31:42.805Z,18.80
2019-05-29T16:34:14.438Z,18.70
2019-05-29T16:36:45.093Z,18.70
2019-05-29T16:39:15.816Z,18.80
2019-05-29T16:41:46.301Z,18.80
2019-05-29T16:44:16.614Z,18.80
2019-05-29T16:46:46.941Z,18.70
2019-05-29T16:49:18.718Z,18.70
2019-05-29T16:51:50.094Z,18.60
2019-05-29T16:54:21.024Z,18.60
2019-05-29T16:56:51.357Z,18.60
2019-05-29T16:59:21.737Z,18.50
2019-05-29T17:01:52.069Z,18.60
2019-05-29T17:04:23.640Z,18.60
2019-05-29T17:06:54.247Z,18.60
2019-05-29T17:09:24.687Z,18.60
2019-05-29T17:11:55.101Z,18.50
2019-05-29T17:14:25.403Z,18.60
2019-05-29T17:16:55.807Z,18.50
2019-05-29T17:19:26.363Z,18.50
2019-05-29T17:21:56.713Z,18.40
2019-05-29T17:24:27.214Z,18.40
2019-05-29T17:26:57.623Z,18.40
2019-05-29T17:29:28.087Z,18.40
2019-05-29T17:31:58.516Z,18.30
2019-05-29T17:34:28.826Z,18.20
2019-05-29T17:36:59.182Z,18.20
2019-05-29T17:39:29.619Z,18.20
2019-05-29T17:41:59.954Z,18.10
2019-05-29T17:44:31.166Z,18.10
2019-05-29T17:47:01.503Z,18.10
2019-05-29T17:49:34.769Z,18.10
2019-05-29T17:52:04.855Z,18.00
2019-05-29T17:54:36.150Z,18.10
2019-05-29T17:57:06.602Z,18.10
2019-05-29T17:59:36.962Z,18.10
2019-05-29T18:02:07.391Z,18.00
2019-05-29T18:04:37.804Z,17.80
2019-05-29T18:07:08.211Z,17.70
2019-05-29T18:09:38.566Z,17.60
2019-05-29T18:12:08.880Z,17.60
2019-05-29T18:14:39.207Z,17.60
2019-05-29T18:17:09.986Z,17.50
2019-05-29T18:19:40.394Z,17.40
2019-05-29T18:22:10.768Z,17.40
2019-05-29T18:24:41.084Z,17.30
2019-05-29T18:27:11.493Z,17.20
2019-05-29T18:29:41.938Z,17.20
2019-05-29T18:32:12.316Z,17.20
2019-05-29T18:34:42.796Z,17.10
2019-05-29T18:37:13.151Z,17.00
2019-05-29T18:39:43.588Z,16.90
2019-05-29T18:42:13.862Z,16.80
2019-05-29T18:44:45.178Z,16.70
2019-05-29T18:47:15.602Z,16.70
2019-05-29T19:01:32.032Z,16.20
2019-05-29T19:04:03.509Z,16.10
2019-05-29T19:06:33.920Z,15.90
2019-05-29T19:09:07.398Z,15.80
2019-05-29T19:11:37.913Z,15.80
2019-05-29T19:34:50.734Z,15.20
2019-05-29T19:37:21.156Z,15.20
2019-05-29T19:39:51.564Z,15.10
2019-05-29T19:42:21.924Z,15.10
2019-05-29T19:44:52.272Z,15.00
2019-05-29T19:47:24.625Z,14.90
2019-05-29T19:49:56.090Z,14.90
2019-05-29T19:52:27.044Z,14.90
2019-05-29T19:54:57.418Z,14.90
2019-05-29T19:57:28.149Z,14.80
2019-05-29T19:59:58.575Z,14.80
2019-05-29T20:02:28.994Z,14.70
2019-05-29T20:04:59.362Z,14.70
2019-05-29T20:07:29.706Z,14.70
2019-05-29T20:10:00.085Z,14.60
2019-05-29T20:12:31.609Z,14.50
2019-05-29T20:15:03.575Z,14.40
2019-05-29T20:17:34.404Z,14.40
2019-05-29T20:20:05.037Z,14.20
2019-05-29T20:22:36.768Z,14.10
2019-05-29T20:25:07.943Z,14.00
2019-05-29T20:27:38.627Z,13.90
2019-05-29T20:30:15.989Z,13.80
2019-05-29T20:32:46.477Z,13.70
2019-05-29T20:35:17.247Z,13.70
2019-05-29T20:37:47.665Z,13.60
2019-05-29T20:40:18.309Z,13.50
2019-05-29T20:42:48.729Z,13.50
2019-05-29T20:45:19.133Z,13.50
2019-05-29T20:47:49.845Z,13.60
2019-05-29T20:50:21.270Z,13.60
2019-05-29T20:52:51.624Z,13.60
2019-05-29T20:55:22.018Z,13.60
2019-05-29T20:57:52.525Z,13.60
2019-05-29T21:00:23.094Z,13.60
2019-05-29T21:02:53.379Z,13.60
2019-05-29T21:05:23.794Z,13.60
2019-05-29T21:07:54.219Z,13.50
2019-05-29T21:10:24.565Z,13.50
2019-05-29T21:12:54.897Z,13.70
2019-05-29T21:15:25.444Z,13.70
2019-05-29T21:17:55.688Z,13.80
2019-05-29T21:20:29.088Z,13.80
2019-05-29T21:22:58.142Z,13.80
2019-05-29T21:25:28.773Z,13.80
2019-05-29T21:27:59.030Z,13.80
2019-05-29T21:30:29.494Z,13.80
2019-05-29T21:32:59.787Z,13.80
2019-05-29T21:35:30.131Z,13.90
2019-05-29T21:38:00.476Z,13.80
2019-05-29T21:40:30.958Z,13.80
2019-05-29T21:43:01.666Z,13.80
2019-05-29T21:45:32.093Z,13.60
2019-05-29T21:48:03.313Z,13.60
2019-05-29T21:50:33.669Z,13.60
2019-05-29T21:53:04.092Z,13.60
2019-05-29T21:55:34.599Z,13.70
2019-05-29T21:58:05.124Z,13.70
2019-05-29T22:00:49.281Z,13.80
2019-05-29T22:03:21.380Z,13.90
2019-05-29T22:05:51.807Z,13.90
2019-05-29T22:08:22.231Z,14.00
2019-05-29T22:10:53.415Z,14.00
2019-05-29T22:13:23.883Z,14.10
2019-05-29T22:15:54.757Z,14.20
2019-05-29T22:18:25.852Z,14.20
2019-05-29T22:20:58.326Z,14.00
2019-05-29T22:23:28.406Z,14.00
2019-05-29T22:25:59.449Z,13.90
2019-05-29T22:28:29.827Z,13.90
2019-05-29T22:31:00.167Z,13.90
2019-05-29T22:33:32.574Z,13.90
2019-05-29T22:36:02.988Z,14.00
2019-05-29T22:38:33.431Z,14.00
2019-05-29T22:41:03.824Z,13.90
2019-05-29T22:43:34.318Z,13.90
2019-05-29T22:46:05.023Z,14.00
2019-05-29T22:48:35.477Z,14.00
2019-05-29T22:51:05.926Z,14.10
2019-05-29T22:53:36.278Z,14.20
2019-05-29T22:56:06.686Z,14.20
2019-05-29T22:58:36.950Z,14.20
2019-05-29T23:01:07.375Z,14.20
2019-05-29T23:03:38.482Z,14.30
2019-05-29T23:06:08.822Z,14.30
2019-05-29T23:08:39.190Z,14.30
2019-05-29T23:11:09.442Z,14.40
2019-05-29T23:13:39.778Z,14.30
2019-05-29T23:16:10.403Z,14.30
2019-05-29T23:18:40.742Z,14.30
2019-05-29T23:21:11.155Z,14.30
2019-05-29T23:23:41.497Z,14.40
2019-05-29T23:26:11.839Z,14.40
2019-05-29T23:28:42.189Z,14.30
2019-05-29T23:31:12.589Z,14.40
2019-05-29T23:33:43.031Z,14.30
2019-05-29T23:36:14.181Z,14.30
2019-05-29T23:38:44.637Z,14.20
2019-05-29T23:41:14.983Z,14.20
2019-05-29T23:43:45.260Z,14.20
2019-05-29T23:46:15.685Z,14.20
2019-05-29T23:48:47.054Z,14.20
2019-05-29T23:51:17.408Z,14.20
2019-05-29T23:53:47.736Z,14.30
2019-05-29T23:56:18.096Z,14.30
2019-05-29T23:58:48.507Z,14.20
